createdAt,value
2022-08-28T00:01:30.191Z,100975.66
2022-08-28T00:03:57.289Z,100975.66
2022-08-28T00:06:23.654Z,100972.75
2022-08-28T00:08:50.051Z,100975.66
2022-08-28T00:11:16.465Z,100972.75
2022-08-28T00:13:42.831Z,100969.88
2022-08-28T00:16:09.477Z,100981.44
2022-08-28T00:18:35.890Z,100979.97
2022-08-28T00:21:02.259Z,100981.34
2022-08-28T00:23:38.794Z,100995.81
2022-08-28T00:26:08.985Z,100987.13
2022-08-28T00:28:35.343Z,100987.94
2022-08-28T00:31:01.769Z,100988.78
2022-08-28T00:33:29.894Z,100990.19
2022-08-28T00:35:56.441Z,100984.41
2022-08-28T00:38:23.034Z,100982.94
2022-08-28T00:40:52.362Z,100991.59
2022-08-28T00:43:22.292Z,100988.72
2022-08-28T00:45:48.651Z,100993.00
2022-08-28T00:48:15.039Z,100981.44
2022-08-28T00:51:00.287Z,100981.44
2022-08-28T00:53:32.808Z,100987.88
2022-08-28T00:55:59.933Z,100981.34
2022-08-28T00:58:26.294Z,100978.47
2022-08-28T01:00:52.667Z,100977.72
2022-08-28T01:03:19.015Z,100979.97
2022-08-28T01:05:48.051Z,100966.91
2022-08-28T01:08:14.595Z,100979.97
2022-08-28T01:10:41.067Z,100977.00
2022-08-28T01:13:07.417Z,100972.59
2022-08-28T01:15:34.150Z,100977.00
2022-08-28T01:18:05.925Z,100971.94
2022-08-28T01:20:34.665Z,100970.47
2022-08-28T01:23:09.882Z,100977.72
2022-08-28T01:25:36.249Z,100979.16
2022-08-28T01:28:04.041Z,100982.78
2022-08-28T01:30:31.823Z,100981.28
2022-08-28T01:32:58.173Z,100993.59
2022-08-28T01:35:26.230Z,100984.94
2022-08-28T01:37:52.737Z,100991.38
2022-08-28T01:40:22.850Z,100985.66
2022-08-28T01:42:50.201Z,100992.13
2022-08-28T01:45:17.138Z,100991.38
2022-08-28T01:47:43.827Z,100989.88
2022-08-28T01:50:11.199Z,100987.75
2022-08-28T01:52:38.905Z,100988.41
2022-08-28T01:55:05.482Z,100994.19
2022-08-28T01:57:32.288Z,100990.66
2022-08-28T01:59:58.672Z,100992.78
2022-08-28T02:02:25.043Z,100986.25
2022-08-28T02:04:52.311Z,100994.19
2022-08-28T02:07:18.719Z,100997.00
2022-08-28T02:09:45.089Z,100989.06
2022-08-28T02:12:11.448Z,100997.00
2022-08-28T02:14:38.659Z,100989.75
2022-08-28T02:17:05.039Z,100991.22
2022-08-28T02:19:32.165Z,100991.88
2022-08-28T02:21:58.524Z,100991.16
2022-08-28T02:24:24.888Z,100995.53
2022-08-28T02:26:51.246Z,100996.28
2022-08-28T02:29:18.580Z,101004.22
2022-08-28T02:31:44.943Z,101001.31
2022-08-28T02:34:11.370Z,101005.59
2022-08-28T02:36:39.927Z,101002.72
2022-08-28T02:39:06.289Z,101004.88
2022-08-28T02:41:32.939Z,101011.31
2022-08-28T02:43:59.515Z,101007.03
2022-08-28T02:46:26.562Z,101009.94
2022-08-28T02:48:53.042Z,100999.75
2022-08-28T02:51:20.108Z,101002.66
2022-08-28T02:53:46.462Z,101002.66
2022-08-28T02:56:12.819Z,101008.44
2022-08-28T02:58:39.346Z,101014.97
2022-08-28T03:01:07.011Z,101012.81
2022-08-28T03:03:33.517Z,101004.16
2022-08-28T03:06:00.614Z,101005.53
2022-08-28T03:08:27.243Z,100998.28
2022-08-28T03:10:53.843Z,100999.69
2022-08-28T03:13:26.667Z,101006.22
2022-08-28T03:15:53.680Z,101005.47
2022-08-28T03:18:22.693Z,101001.09
2022-08-28T03:20:49.042Z,101006.97
2022-08-28T03:23:27.316Z,100999.69
2022-08-28T03:26:04.910Z,101000.44
2022-08-28T03:28:33.612Z,101006.88
2022-08-28T03:31:00.095Z,101006.81
2022-08-28T03:33:27.018Z,101015.56
2022-08-28T03:35:53.381Z,101011.19
2022-08-28T03:38:19.766Z,101011.19
2022-08-28T03:40:46.289Z,101012.59
2022-08-28T03:43:17.774Z,101011.13
2022-08-28T03:45:51.929Z,101014.09
2022-08-28T03:48:19.524Z,101012.59
2022-08-28T03:50:46.347Z,101016.13
2022-08-28T03:53:14.906Z,101012.50
2022-08-28T03:55:41.849Z,101008.97
2022-08-28T03:58:08.226Z,101005.34
2022-08-28T04:00:35.314Z,101016.91
2022-08-28T04:03:01.746Z,101012.50
2022-08-28T04:05:28.517Z,101016.81
2022-08-28T04:07:54.865Z,101025.50
2022-08-28T04:10:21.222Z,101028.38
2022-08-28T04:12:47.964Z,101026.88
2022-08-28T04:15:15.096Z,101029.78
2022-08-28T04:17:41.481Z,101030.53
2022-08-28T04:20:08.351Z,101034.09
2022-08-28T04:22:34.744Z,101033.34
2022-08-28T04:25:01.111Z,101044.22
2022-08-28T04:27:27.456Z,101048.53
2022-08-28T04:29:53.817Z,101047.03
2022-08-28T04:32:20.215Z,101054.09
2022-08-28T04:34:46.710Z,101057.41
2022-08-28T04:37:13.061Z,101058.81
2022-08-28T04:39:39.426Z,101062.00
2022-08-28T04:42:05.781Z,101059.28
2022-08-28T04:44:32.280Z,101060.75
2022-08-28T04:46:58.923Z,101065.13
2022-08-28T04:49:25.915Z,101067.41
2022-08-28T04:51:52.488Z,101062.31
2022-08-28T04:54:18.855Z,101066.69
2022-08-28T04:56:46.257Z,101068.09
2022-08-28T04:59:12.688Z,101069.41
2022-08-28T05:01:39.688Z,101079.50
2022-08-28T05:04:06.051Z,101072.28
2022-08-28T05:06:32.667Z,101071.56
2022-08-28T05:08:59.552Z,101072.91
2022-08-28T05:11:33.408Z,101069.94
2022-08-28T05:14:01.142Z,101072.81
2022-08-28T05:16:27.556Z,101068.50
2022-08-28T05:18:54.000Z,101075.72
2022-08-28T05:21:21.397Z,101073.63
2022-08-28T05:23:51.315Z,101077.94
2022-08-28T05:26:17.758Z,101079.25
2022-08-28T05:28:44.118Z,101080.59
2022-08-28T05:31:11.071Z,101077.78
2022-08-28T05:33:37.509Z,101086.53
2022-08-28T05:36:04.740Z,101091.56
2022-08-28T05:38:31.125Z,101080.59
2022-08-28T05:40:57.474Z,101087.03
2022-08-28T05:43:25.570Z,101089.09
2022-08-28T05:45:58.471Z,101090.69
2022-08-28T05:48:26.154Z,101087.72
2022-08-28T05:50:58.311Z,101089.91
2022-08-28T05:53:25.698Z,101090.50
2022-08-28T05:55:52.437Z,101091.81
2022-08-28T05:58:28.991Z,101084.72
2022-08-28T06:00:55.965Z,101092.72
2022-08-28T06:03:23.070Z,101096.22
2022-08-28T06:05:55.451Z,101096.28
2022-08-28T06:08:22.912Z,101091.81
2022-08-28T06:10:50.942Z,101094.06
2022-08-28T06:13:17.434Z,101100.47
2022-08-28T06:15:45.519Z,101096.88
2022-08-28T06:18:12.549Z,101097.59
2022-08-28T06:20:41.430Z,101087.38
2022-08-28T06:23:08.170Z,101093.25
2022-08-28T06:25:38.994Z,101096.03
2022-08-28T06:28:05.694Z,101106.25
2022-08-28T06:30:32.070Z,101104.06
2022-08-28T06:32:58.669Z,101110.41
2022-08-28T06:35:25.026Z,101110.50
2022-08-28T06:37:51.394Z,101110.13
2022-08-28T06:40:17.797Z,101108.16
2022-08-28T06:42:44.185Z,101102.56
2022-08-28T06:45:12.224Z,101108.53
2022-08-28T06:47:38.577Z,101114.91
2022-08-28T06:50:05.055Z,101122.03
2022-08-28T06:52:31.417Z,101127.16
2022-08-28T06:54:58.077Z,101130.78
2022-08-28T06:57:26.011Z,101137.72
2022-08-28T06:59:55.856Z,101137.94
2022-08-28T07:02:22.335Z,101142.38
2022-08-28T07:04:54.788Z,101139.31
2022-08-28T07:07:32.387Z,101135.97
2022-08-28T07:09:59.148Z,101144.69
2022-08-28T07:12:25.502Z,101144.78
2022-08-28T07:14:51.868Z,101153.22
2022-08-28T07:17:18.254Z,101149.72
2022-08-28T07:19:44.606Z,101157.47
2022-08-28T07:22:10.970Z,101165.16
2022-08-28T07:24:37.338Z,101151.84
2022-08-28T07:27:05.394Z,101161.53
2022-08-28T07:29:31.868Z,101155.66
2022-08-28T07:31:58.974Z,101161.84
2022-08-28T07:34:26.841Z,101159.97
2022-08-28T07:36:53.760Z,101169.47
2022-08-28T07:39:20.140Z,101169.47
2022-08-28T07:41:46.853Z,101170.59
2022-08-28T07:44:32.702Z,101172.09
2022-08-28T07:46:59.745Z,101173.75
2022-08-28T07:49:26.107Z,101179.72
2022-08-28T07:51:53.990Z,101178.28
2022-08-28T07:54:20.821Z,101180.03
2022-08-28T07:56:47.170Z,101183.00
2022-08-28T07:59:15.705Z,101185.81
2022-08-28T08:01:43.854Z,101188.78
2022-08-28T08:04:12.601Z,101191.75
2022-08-28T08:06:39.333Z,101190.63
2022-08-28T08:09:05.894Z,101195.25
2022-08-28T08:11:32.775Z,101191.34
2022-08-28T08:14:03.878Z,101186.25
2022-08-28T08:16:35.497Z,101192.94
2022-08-28T08:19:01.884Z,101205.31
2022-08-28T08:21:30.283Z,101198.22
2022-08-28T08:23:57.165Z,101195.44
2022-08-28T08:26:23.945Z,101187.50
2022-08-28T08:28:50.721Z,101193.94
2022-08-28T08:31:18.270Z,101194.69
2022-08-28T08:33:45.553Z,101197.97
2022-08-28T08:36:12.471Z,101201.19
2022-08-28T08:38:38.842Z,101201.38
2022-08-28T08:41:05.944Z,101202.13
2022-08-28T08:43:33.663Z,101208.72
2022-08-28T08:46:00.077Z,101207.31
2022-08-28T08:48:30.345Z,101207.41
2022-08-28T08:50:58.722Z,101198.75
2022-08-28T08:53:51.459Z,101200.31
2022-08-28T08:56:18.832Z,101206.19
2022-08-28T08:58:45.727Z,101204.03
2022-08-28T09:01:22.125Z,101207.66
2022-08-28T09:04:02.192Z,101206.19
2022-08-28T09:06:36.769Z,101213.44
2022-08-28T09:09:03.512Z,101220.69
2022-08-28T09:11:32.741Z,101223.69
2022-08-28T09:14:12.930Z,101218.63
2022-08-28T09:16:39.935Z,101213.59
2022-08-28T09:19:06.568Z,101215.00
2022-08-28T09:21:34.872Z,101215.09
2022-08-28T09:24:05.892Z,101220.19
2022-08-28T09:26:33.719Z,101216.56
2022-08-28T09:29:06.446Z,101216.56
2022-08-28T09:31:37.633Z,101216.56
2022-08-28T09:34:42.600Z,101223.09
2022-08-28T09:37:09.587Z,101226.78
2022-08-28T09:39:37.670Z,101219.63
2022-08-28T09:42:22.659Z,101225.41
2022-08-28T09:45:09.092Z,101235.56
2022-08-28T09:47:46.071Z,101225.50
2022-08-28T09:50:25.454Z,101233.78
2022-08-28T09:52:52.215Z,101240.38
2022-08-28T09:55:25.063Z,101248.06
2022-08-28T09:57:51.809Z,101244.00
2022-08-28T10:00:18.182Z,101240.56
2022-08-28T10:02:58.108Z,101245.16
2022-08-28T10:05:31.681Z,101247.47
2022-08-28T10:08:01.171Z,101253.75
2022-08-28T10:10:32.549Z,101250.13
2022-08-28T10:13:05.020Z,101247.00
2022-08-28T10:15:49.804Z,101257.19
2022-08-28T10:18:35.186Z,101257.41
2022-08-28T10:21:10.433Z,101249.72
2022-08-28T10:23:40.218Z,101253.44
2022-08-28T10:26:20.120Z,101256.22
2022-08-28T10:28:46.622Z,101255.09
2022-08-28T10:31:19.110Z,101259.34
2022-08-28T10:33:58.795Z,101255.25
2022-08-28T10:36:34.834Z,101266.28
2022-08-28T10:39:07.480Z,101266.38
2022-08-28T10:41:36.447Z,101270.75
2022-08-28T10:44:02.803Z,101266.47
2022-08-28T10:46:32.280Z,101273.34
2022-08-28T10:49:10.666Z,101269.47
2022-08-28T10:51:43.578Z,101270.88
2022-08-28T10:54:26.043Z,101273.19
2022-08-28T10:57:00.418Z,101278.97
2022-08-28T10:59:26.859Z,101279.13
2022-08-28T11:01:53.299Z,101286.59
2022-08-28T11:04:25.206Z,101282.13
2022-08-28T11:06:53.049Z,101276.38
2022-08-28T11:09:30.111Z,101279.66
2022-08-28T11:12:02.218Z,101285.63
2022-08-28T11:14:33.732Z,101283.38
2022-08-28T11:17:04.676Z,101292.91
2022-08-28T11:19:43.895Z,101285.78
2022-08-28T11:22:12.798Z,101289.25
2022-08-28T11:24:43.664Z,101294.47
2022-08-28T11:27:16.923Z,101294.38
2022-08-28T11:30:02.122Z,101291.31
2022-08-28T11:32:31.502Z,101290.66
2022-08-28T11:34:58.797Z,101291.41
2022-08-28T11:37:38.950Z,101297.25
2022-08-28T11:40:17.557Z,101298.09
2022-08-28T11:42:48.526Z,101296.03
2022-08-28T11:45:18.654Z,101296.69
2022-08-28T11:47:46.141Z,101290.16
2022-08-28T11:50:14.357Z,101292.31
2022-08-28T11:52:57.914Z,101293.81
2022-08-28T11:55:32.818Z,101285.78
2022-08-28T12:00:46.910Z,101285.88
2022-08-28T12:03:14.292Z,101285.88
2022-08-28T12:05:45.410Z,101290.25
2022-08-28T12:08:12.032Z,101286.63
2022-08-28T12:10:38.319Z,101286.63
2022-08-28T12:13:05.136Z,101283.06
2022-08-28T12:15:32.102Z,101285.78
2022-08-28T12:18:24.694Z,101287.34
2022-08-28T12:20:50.989Z,101287.13
2022-08-28T12:23:23.133Z,101286.34
2022-08-28T12:25:49.977Z,101273.31
2022-08-28T12:28:26.387Z,101281.72
2022-08-28T12:31:04.901Z,101286.03
2022-08-28T12:33:39.853Z,101285.44
2022-08-28T12:36:06.254Z,101281.06
2022-08-28T12:38:32.926Z,101288.31
2022-08-28T12:40:59.296Z,101283.38
2022-08-28T12:43:28.285Z,101284.63
2022-08-28T12:45:56.274Z,101283.31
2022-08-28T12:48:31.542Z,101275.38
2022-08-28T12:51:05.043Z,101285.06
2022-08-28T12:53:38.701Z,101277.13
2022-08-28T12:56:05.063Z,101278.28
2022-08-28T12:58:32.786Z,101272.50
2022-08-28T13:01:06.693Z,101270.91
2022-08-28T13:03:33.333Z,101272.41
2022-08-28T13:06:06.527Z,101263.84
2022-08-28T13:08:33.181Z,101258.13
2022-08-28T13:10:59.576Z,101261.94
2022-08-28T13:13:29.627Z,101254.09
2022-08-28T13:15:55.950Z,101255.56
2022-08-28T13:18:38.613Z,101257.47
2022-08-28T13:21:33.120Z,101245.50
2022-08-28T13:24:01.538Z,101248.50
2022-08-28T13:26:32.853Z,101253.50
2022-08-28T13:28:59.429Z,101236.75
2022-08-28T13:31:32.927Z,101247.72
2022-08-28T13:34:25.883Z,101238.41
2022-08-28T13:36:53.170Z,101235.59
2022-08-28T13:39:20.745Z,101240.66
2022-08-28T13:41:47.674Z,101231.22
2022-08-28T13:44:21.782Z,101224.03
2022-08-28T13:46:48.346Z,101228.66
2022-08-28T13:49:14.711Z,101229.56
2022-08-28T13:51:41.164Z,101223.13
2022-08-28T13:54:07.535Z,101224.53
2022-08-28T13:56:34.229Z,101225.34
2022-08-28T13:59:00.573Z,101224.75
2022-08-28T14:01:45.813Z,101230.63
2022-08-28T14:04:13.145Z,101227.09
2022-08-28T14:06:41.420Z,101223.44
2022-08-28T14:09:12.920Z,101220.53
2022-08-28T14:11:39.384Z,101227.09
2022-08-28T14:14:05.729Z,101224.13
2022-08-28T14:16:34.516Z,101226.31
2022-08-28T14:19:05.750Z,101223.44
2022-08-28T14:21:32.753Z,101223.50
2022-08-28T14:23:59.508Z,101219.22
2022-08-28T14:26:26.459Z,101210.66
2022-08-28T14:28:52.823Z,101219.38
2022-08-28T14:31:19.208Z,101223.09
2022-08-28T14:33:46.011Z,101218.78
2022-08-28T14:36:16.368Z,101213.75
2022-08-28T14:38:42.726Z,101212.38
2022-08-28T14:41:09.145Z,101213.84
2022-08-28T14:43:35.502Z,101209.47
2022-08-28T14:46:01.907Z,101214.56
2022-08-28T14:48:28.295Z,101215.34
2022-08-28T14:50:54.650Z,101215.34
2022-08-28T14:53:21.039Z,101206.66
2022-08-28T14:55:48.302Z,101200.94
2022-08-28T14:58:14.828Z,101204.59
2022-08-28T15:00:42.458Z,101199.53
2022-08-28T15:03:08.978Z,101199.53
2022-08-28T15:05:35.499Z,101206.06
2022-08-28T15:08:02.587Z,101209.69
2022-08-28T15:10:29.418Z,101211.25
2022-08-28T15:12:55.794Z,101201.00
2022-08-28T15:15:22.161Z,101203.97
2022-08-28T15:17:48.518Z,101199.69
2022-08-28T15:20:14.964Z,101202.59
2022-08-28T15:22:41.351Z,101205.47
2022-08-28T15:25:07.900Z,101188.88
2022-08-28T15:27:34.269Z,101199.78
2022-08-28T15:30:00.627Z,101194.06
2022-08-28T15:32:27.314Z,101189.59
2022-08-28T15:34:53.785Z,101194.84
2022-08-28T15:37:20.159Z,101191.19
2022-08-28T15:40:06.132Z,101199.84
2022-08-28T15:42:33.011Z,101201.34
2022-08-28T15:44:59.377Z,101191.19
2022-08-28T15:47:25.763Z,101200.63
2022-08-28T15:49:55.649Z,101192.69
2022-08-28T15:52:22.110Z,101194.06
2022-08-28T15:54:49.582Z,101192.59
2022-08-28T15:57:15.989Z,101188.28
2022-08-28T15:59:48.926Z,101189.78
2022-08-28T16:02:16.744Z,101194.06
2022-08-28T16:04:43.147Z,101195.56
2022-08-28T16:07:09.532Z,101196.31
2022-08-28T16:09:35.913Z,101192.75
2022-08-28T16:12:02.274Z,101192.03
2022-08-28T16:14:28.636Z,101194.22
2022-08-28T16:16:55.030Z,101191.34
2022-08-28T16:19:21.399Z,101195.66
2022-08-28T16:21:47.758Z,101192.75
2022-08-28T16:24:14.110Z,101199.28
2022-08-28T16:26:40.494Z,101200.69
2022-08-28T16:29:07.235Z,101202.19
2022-08-28T16:31:34.300Z,101201.34
2022-08-28T16:34:01.055Z,101205.72
2022-08-28T16:36:28.292Z,101200.00
2022-08-28T16:39:03.682Z,101202.91
2022-08-28T16:41:30.548Z,101204.25
2022-08-28T16:43:58.354Z,101205.56
2022-08-28T16:46:25.164Z,101211.91
2022-08-28T16:48:51.693Z,101212.56
2022-08-28T16:51:18.195Z,101210.50
2022-08-28T16:53:44.559Z,101207.56
2022-08-28T16:56:12.295Z,101198.03
2022-08-28T16:58:39.066Z,101198.19
2022-08-28T17:01:06.026Z,101196.00
2022-08-28T17:03:34.169Z,101193.91
2022-08-28T17:06:02.961Z,101199.78
2022-08-28T17:08:29.324Z,101196.13
2022-08-28T17:10:55.807Z,101208.44
2022-08-28T17:13:22.178Z,101204.16
2022-08-28T17:15:48.566Z,101206.88
2022-08-28T17:18:15.086Z,101210.69
2022-08-28T17:21:00.115Z,101208.44
2022-08-28T17:23:26.491Z,101206.28
2022-08-28T17:25:52.854Z,101211.44
2022-08-28T17:28:19.213Z,101216.47
2022-08-28T17:30:45.660Z,101213.56
2022-08-28T17:33:12.014Z,101220.09
2022-08-28T17:35:41.808Z,101221.53
2022-08-28T17:38:08.666Z,101217.22
2022-08-28T17:40:35.070Z,101218.63
2022-08-28T17:43:02.910Z,101224.50
2022-08-28T17:45:29.455Z,101220.09
2022-08-28T17:47:55.872Z,101229.53
2022-08-28T17:50:22.297Z,101230.34
2022-08-28T17:52:48.663Z,101239.03
2022-08-28T17:55:15.832Z,101231.75
2022-08-28T17:57:42.225Z,101236.13
2022-08-28T18:00:09.236Z,101237.53
2022-08-28T18:02:39.381Z,101243.31
2022-08-28T18:05:06.627Z,101246.97
2022-08-28T18:07:33.020Z,101249.09
2022-08-28T18:09:59.402Z,101239.03
2022-08-28T18:12:25.799Z,101247.69
2022-08-28T18:14:52.211Z,101257.78
2022-08-28T18:17:19.413Z,101256.38
2022-08-28T18:19:45.786Z,101254.88
2022-08-28T18:22:12.794Z,101259.19
2022-08-28T18:24:39.227Z,101261.44
2022-08-28T18:27:05.663Z,101267.03
2022-08-28T18:29:32.034Z,101270.03
2022-08-28T18:31:58.390Z,101266.28
2022-08-28T18:34:24.760Z,101267.78
2022-08-28T18:36:51.179Z,101277.75
2022-08-28T18:39:22.643Z,101279.34
2022-08-28T18:41:56.086Z,101281.47
2022-08-28T18:44:24.298Z,101283.63
2022-08-28T18:46:50.864Z,101285.03
2022-08-28T18:49:17.274Z,101286.44
2022-08-28T18:51:43.642Z,101294.88
2022-08-28T18:54:11.308Z,101303.47
2022-08-28T18:56:39.820Z,101292.78
2022-08-28T18:59:07.604Z,101300.97
2022-08-28T19:01:34.161Z,101298.00
2022-08-28T19:04:00.625Z,101305.25
2022-08-28T19:06:26.985Z,101303.78
2022-08-28T19:08:53.356Z,101306.59
2022-08-28T19:11:19.711Z,101312.38
2022-08-28T19:13:46.062Z,101314.44
2022-08-28T19:16:15.361Z,101313.69
2022-08-28T19:18:41.802Z,101310.75
2022-08-28T19:21:09.365Z,101312.28
2022-08-28T19:23:35.732Z,101315.28
2022-08-28T19:26:02.086Z,101322.44
2022-08-28T19:28:28.450Z,101324.50
2022-08-28T19:30:54.914Z,101323.88
2022-08-28T19:33:21.323Z,101326.59
2022-08-28T19:35:47.674Z,101324.44
2022-08-28T19:38:14.167Z,101336.59
2022-08-28T19:40:40.693Z,101336.69
2022-08-28T19:43:07.086Z,101339.66
2022-08-28T19:45:36.998Z,101338.16
2022-08-28T19:48:03.411Z,101340.97
2022-08-28T19:50:29.819Z,101342.44
2022-08-28T19:52:56.177Z,101340.97
2022-08-28T19:55:23.194Z,101343.94
2022-08-28T19:57:49.602Z,101343.94
2022-08-28T20:00:17.646Z,101343.94
2022-08-28T20:02:44.145Z,101342.44
2022-08-28T20:05:10.600Z,101348.25
2022-08-28T20:07:36.993Z,101347.47
2022-08-28T20:10:03.542Z,101358.31
2022-08-28T20:12:31.052Z,101351.03
2022-08-28T20:15:02.689Z,101356.81
2022-08-28T20:17:29.976Z,101361.09
2022-08-28T20:20:02.232Z,101368.22
2022-08-28T20:22:30.107Z,101359.63
2022-08-28T20:24:56.690Z,101364.69
2022-08-28T20:27:24.054Z,101357.38
2022-08-28T20:29:50.668Z,101368.09
2022-08-28T20:32:17.332Z,101361.75
2022-08-28T20:34:44.572Z,101367.81
2022-08-28T20:37:11.465Z,101370.03
2022-08-28T20:39:41.912Z,101379.44
2022-08-28T20:42:09.508Z,101370.84
2022-08-28T20:44:36.260Z,101366.56
2022-08-28T20:47:02.890Z,101369.47
2022-08-28T20:49:29.941Z,101368.72
2022-08-28T20:51:57.367Z,101372.25
2022-08-28T20:54:25.229Z,101372.25
2022-08-28T20:56:52.065Z,101373.00
2022-08-28T20:59:18.688Z,101368.72
2022-08-28T21:01:45.080Z,101381.03
2022-08-28T21:04:11.487Z,101366.56
2022-08-28T21:06:38.302Z,101370.84
2022-08-28T21:09:04.697Z,101381.66
2022-08-28T21:11:31.201Z,101380.94
2022-08-28T21:13:57.761Z,101374.31
2022-08-28T21:16:24.288Z,101382.31
2022-08-28T21:19:14.399Z,101384.47
2022-08-28T21:21:37.043Z,101377.22
2022-08-28T21:24:04.474Z,101388.03
2022-08-28T21:26:30.889Z,101382.25
2022-08-28T21:28:57.514Z,101379.28
2022-08-28T21:31:23.964Z,101374.88
2022-08-28T21:33:50.402Z,101380.66
2022-08-28T21:36:17.115Z,101377.69
2022-08-28T21:38:43.585Z,101369.69
2022-08-28T21:41:13.998Z,101373.31
2022-08-28T21:43:40.879Z,101376.88
2022-08-28T21:46:07.309Z,101384.78
2022-08-28T21:48:36.035Z,101384.88
2022-08-28T21:51:03.108Z,101384.88
2022-08-28T21:53:31.362Z,101381.91
2022-08-28T21:55:57.727Z,101386.19
2022-08-28T21:58:24.181Z,101397.00
2022-08-28T22:00:51.368Z,101389.75
2022-08-28T22:03:17.759Z,101394.03
2022-08-28T22:05:44.515Z,101396.19
2022-08-28T22:08:11.462Z,101393.28
2022-08-28T22:10:40.509Z,101389.56
2022-08-28T22:13:07.246Z,101391.06
2022-08-28T22:15:33.606Z,101391.63
2022-08-28T22:17:59.953Z,101396.75
2022-08-28T22:20:26.469Z,101401.88
2022-08-28T22:23:11.062Z,101406.19
2022-08-28T22:25:41.288Z,101407.66
2022-08-28T22:28:07.854Z,101402.53
2022-08-28T22:30:34.291Z,101408.22
2022-08-28T22:33:01.375Z,101403.94
2022-08-28T22:35:27.926Z,101402.44
2022-08-28T22:37:54.299Z,101407.47
2022-08-28T22:40:21.578Z,101403.09
2022-08-28T22:42:47.949Z,101398.75
2022-08-28T22:45:15.382Z,101402.28
2022-08-28T22:47:41.741Z,101399.38
2022-08-28T22:50:08.491Z,101395.84
2022-08-28T22:52:34.865Z,101411.59
2022-08-28T22:55:01.215Z,101405.81
2022-08-28T22:57:28.462Z,101397.81
2022-08-28T22:59:54.826Z,101399.28
2022-08-28T23:02:21.249Z,101397.81
2022-08-28T23:04:52.030Z,101408.59
2022-08-28T23:07:18.779Z,101400.72
2022-08-28T23:09:45.139Z,101408.59
2022-08-28T23:12:11.505Z,101409.38
2022-08-28T23:14:37.857Z,101400.03
2022-08-28T23:17:04.287Z,101399.94
2022-08-28T23:19:30.822Z,101404.25
2022-08-28T23:21:57.181Z,101404.16
2022-08-28T23:24:23.536Z,101407.13
2022-08-28T23:26:50.015Z,101396.91
2022-08-28T23:29:16.365Z,101394.66
2022-08-28T23:31:42.774Z,101393.91
2022-08-28T23:34:09.182Z,101392.41
2022-08-28T23:36:35.940Z,101403.22
2022-08-28T23:39:03.838Z,101403.22
2022-08-28T23:41:30.361Z,101395.97
2022-08-28T23:43:56.999Z,101395.97
2022-08-28T23:46:23.402Z,101393.75
2022-08-28T23:48:49.992Z,101393.75
2022-08-28T23:51:16.362Z,101398.00
2022-08-28T23:53:42.797Z,101400.91
2022-08-28T23:56:09.151Z,101392.22
2022-08-28T23:58:35.706Z,101387.88
